Time;durP1;ratioP1;P1;durP2;ratioP2;P2;SDS_P1;SDS_P2;PMS_P1;PMS_P2;Temp;Humidity;BMP_temperature;BMP_pressure;BME280_temperature;BME280_humidity;BME280_pressure;Samples;Min_cycle;Max_cycle;Signal;HPM_P1;HPM_P2
2024/04/08 00:00:51;;;;;;;;;;;;;;;16.23;100.00;101176.75;5034795;28;909;-60
2024/04/08 00:03:16;;;;;;;;;;;;;;;16.23;100.00;101188.38;5022166;28;1240;-60
2024/04/08 00:05:41;;;;;;;;;;;;;;;16.20;100.00;101182.66;5024269;28;1902;-60
2024/04/08 00:08:07;;;;;;;;;;;;;;;16.21;100.00;101195.94;5022390;28;1069;-62
2024/04/08 00:10:34;;;;;;;;;;;;;;;16.17;100.00;101183.97;5027957;28;1164;-60
2024/04/08 00:12:59;;;;;;;;;;;;;;;16.17;100.00;101170.44;5032243;28;1069;-60
2024/04/08 00:15:25;;;;;;;;;;;;;;;16.16;100.00;101156.06;5033118;28;1192;-61
2024/04/08 00:17:50;;;;;;;;;;;;;;;16.16;100.00;101152.56;5013107;28;1184;-61
2024/04/08 00:20:15;;;;;;;;;;;;;;;16.14;100.00;101163.63;5027407;28;1142;-61
2024/04/08 00:22:41;;;;;;;;;;;;;;;16.13;100.00;101161.16;5027091;28;1277;-61
2024/04/08 00:25:07;;;;;;;;;;;;;;;16.16;100.00;101166.09;5036810;28;997;-61
2024/04/08 00:27:33;;;;;;;;;;;;;;;16.13;100.00;101153.84;5025183;28;1565;-61
2024/04/08 00:29:58;;;;;;;;;;;;;;;16.11;100.00;101147.06;5017810;28;1066;-61
2024/04/08 00:32:23;;;;;;;;;;;;;;;16.08;100.00;101131.34;5020804;28;1108;-61
2024/04/08 00:34:48;;;;;;;;;;;;;;;16.04;100.00;101136.41;5030647;28;1261;-61
2024/04/08 00:37:14;;;;;;;;;;;;;;;16.10;100.00;101151.66;5032302;28;1092;-60
2024/04/08 00:39:39;;;;;;;;;;;;;;;16.07;100.00;101144.03;5027166;28;1091;-60
2024/04/08 00:42:04;;;;;;;;;;;;;;;16.07;100.00;101144.03;5031659;28;1120;-61
2024/04/08 00:44:30;;;;;;;;;;;;;;;16.05;100.00;101148.88;5023979;28;1112;-61
2024/04/08 00:46:55;;;;;;;;;;;;;;;16.05;100.00;101151.56;5019662;28;1914;-61
2024/04/08 00:49:20;;;;;;;;;;;;;;;16.04;100.00;101149.13;5009947;28;1147;-61
2024/04/08 00:51:46;;;;;;;;;;;;;;;16.03;100.00;101155.59;5029358;28;1042;-61
2024/04/08 00:54:11;;;;;;;;;;;;;;;16.02;100.00;101148.53;5013127;28;1041;-61
2024/04/08 00:56:36;;;;;;;;;;;;;;;15.98;100.00;101143.63;5025102;28;1256;-60
2024/04/08 00:59:03;;;;;;;;;;;;;;;15.98;100.00;101140.91;5032158;28;1105;-61
2024/04/08 01:01:28;;;;;;;;;;;;;;;15.98;100.00;101132.78;5014094;28;1025;-61
2024/04/08 01:03:53;;;;;;;;;;;;;;;15.98;100.00;101126.56;5015728;28;1500;-61
2024/04/08 01:06:19;;;;;;;;;;;;;;;15.96;100.00;101117.91;5027164;28;1973;-61
2024/04/08 01:08:44;;;;;;;;;;;;;;;15.93;100.00;101113.78;5027777;28;1565;-61
2024/04/08 01:11:09;;;;;;;;;;;;;;;15.93;100.00;101121.91;5021326;28;1205;-61
2024/04/08 01:13:35;;;;;;;;;;;;;;;15.90;100.00;101119.69;5014419;28;1314;-61
2024/04/08 01:16:01;;;;;;;;;;;;;;;15.95;100.00;101110.84;5002953;28;1484;-61
2024/04/08 01:18:26;;;;;;;;;;;;;;;15.91;100.00;101109.69;5028822;28;1475;-61
2024/04/08 01:20:51;;;;;;;;;;;;;;;15.92;100.00;101101.31;5026109;28;1167;-61
2024/04/08 01:23:16;;;;;;;;;;;;;;;15.87;100.00;101093.16;5000503;28;1064;-61
2024/04/08 01:25:42;;;;;;;;;;;;;;;15.86;100.00;101096.09;5019951;28;1969;-61
2024/04/08 01:28:07;;;;;;;;;;;;;;;15.88;100.00;101094.75;5017517;28;1330;-61
2024/04/08 01:30:32;;;;;;;;;;;;;;;15.88;100.00;101094.75;5013907;28;1161;-62
2024/04/08 01:32:57;;;;;;;;;;;;;;;15.81;100.00;101089.53;5024622;28;1076;-62
2024/04/08 01:35:23;;;;;;;;;;;;;;;15.84;100.00;101088.22;5020889;28;1162;-62
2024/04/08 01:37:48;;;;;;;;;;;;;;;15.81;100.00;101088.72;5026847;28;1293;-62
2024/04/08 01:40:13;;;;;;;;;;;;;;;15.77;100.00;101092.94;5026723;28;1245;-62
2024/04/08 01:42:39;;;;;;;;;;;;;;;15.78;100.00;101083.78;5026772;28;1117;-62
2024/04/08 01:45:04;;;;;;;;;;;;;;;15.80;100.00;101087.06;5003542;28;1425;-62
2024/04/08 01:47:30;;;;;;;;;;;;;;;15.77;100.00;101082.94;5004084;28;1914;-62
2024/04/08 01:49:55;;;;;;;;;;;;;;;15.76;100.00;101072.38;5017561;28;1375;-62
2024/04/08 01:52:20;;;;;;;;;;;;;;;15.77;100.00;101076.72;5026853;28;1147;-62
2024/04/08 01:54:45;;;;;;;;;;;;;;;15.76;100.00;101069.66;5024381;28;1352;-62
2024/04/08 01:57:11;;;;;;;;;;;;;;;15.76;100.00;101066.97;5023876;28;1053;-62
2024/04/08 01:59:36;;;;;;;;;;;;;;;15.75;100.00;101066.16;5012961;28;1220;-62
2024/04/08 02:02:01;;;;;;;;;;;;;;;15.76;100.00;101075.06;5029271;28;1012;-61
2024/04/08 02:04:26;;;;;;;;;;;;;;;15.71;100.00;101069.59;5030489;28;1257;-62
2024/04/08 02:06:52;;;;;;;;;;;;;;;15.70;100.00;101068.75;5029700;28;1973;-62
2024/04/08 02:09:17;;;;;;;;;;;;;;;15.71;100.00;101075.00;5032658;28;1049;-62
2024/04/08 02:11:42;;;;;;;;;;;;;;;15.70;100.00;101087.69;5013278;28;1271;-62
2024/04/08 02:14:08;;;;;;;;;;;;;;;15.69;100.00;101074.41;5012155;28;1193;-62
2024/04/08 02:16:33;;;;;;;;;;;;;;;15.67;100.00;101069.25;5026216;28;1127;-62
2024/04/08 02:18:58;;;;;;;;;;;;;;;15.63;100.00;101063.53;5029081;28;1225;-62
2024/04/08 02:21:24;;;;;;;;;;;;;;;15.64;100.00;101062.44;5030078;28;1128;-62
2024/04/08 02:23:49;;;;;;;;;;;;;;;15.63;100.00;101057.28;5005612;28;1225;-62
2024/04/08 02:26:14;;;;;;;;;;;;;;;15.62;100.00;101055.66;5024029;28;1918;-62
2024/04/08 02:28:39;;;;;;;;;;;;;;;15.61;100.00;101059.44;5017838;28;1341;-62
2024/04/08 02:31:05;;;;;;;;;;;;;;;15.61;100.00;101041.31;5002796;28;1376;-62
2024/04/08 02:33:30;;;;;;;;;;;;;;;15.60;100.00;101025.34;5019042;28;1293;-62
2024/04/08 02:36:05;;;;;;;;;;;;;;;15.59;100.00;101021.84;5014510;28;1693;-61
2024/04/08 02:38:30;;;;;;;;;;;;;;;15.58;100.00;101022.88;5023529;28;1333;-62
2024/04/08 02:40:55;;;;;;;;;;;;;;;15.60;100.00;101022.63;5010855;28;1278;-62
2024/04/08 02:43:21;;;;;;;;;;;;;;;15.64;100.00;101021.09;5017462;28;1257;-62
2024/04/08 02:45:47;;;;;;;;;;;;;;;15.59;100.00;101034.53;5005208;28;1978;-62
2024/04/08 02:48:14;;;;;;;;;;;;;;;15.58;100.00;101032.88;5003501;28;1163;-62
2024/04/08 02:50:40;;;;;;;;;;;;;;;15.57;100.00;101034.78;5007188;28;1380;-62
2024/04/08 02:53:05;;;;;;;;;;;;;;;15.57;100.00;101039.34;5026414;28;1173;-62
2024/04/08 02:55:30;;;;;;;;;;;;;;;15.55;100.00;101028.78;5022061;28;1267;-62
2024/04/08 02:57:55;;;;;;;;;;;;;;;15.54;100.00;101021.72;5002216;28;1226;-62
2024/04/08 03:00:21;;;;;;;;;;;;;;;15.53;100.00;101016.56;5023319;28;1253;-62
2024/04/08 03:02:46;;;;;;;;;;;;;;;15.53;100.00;101024.69;5011948;28;1359;-62
2024/04/08 03:05:12;;;;;;;;;;;;;;;15.52;100.00;101015.75;5011472;28;1355;-62
2024/04/08 03:07:37;;;;;;;;;;;;;;;15.53;100.00;101019.28;5026813;28;2024;-62
2024/04/08 03:10:02;;;;;;;;;;;;;;;15.51;100.00;101010.59;5011317;28;1018;-62
2024/04/08 03:12:28;;;;;;;;;;;;;;;15.48;100.00;101010.03;5025675;28;1214;-62
2024/04/08 03:14:53;;;;;;;;;;;;;;;15.48;100.00;101001.94;5023811;28;1212;-62
2024/04/08 03:17:18;;;;;;;;;;;;;;;15.50;100.00;101017.06;5022546;28;1289;-62
2024/04/08 03:19:44;;;;;;;;;;;;;;;15.50;100.00;101022.47;5024242;28;1183;-62
2024/04/08 03:22:09;;;;;;;;;;;;;;;15.47;100.00;101026.50;5024896;28;1160;-62
2024/04/08 03:24:35;;;;;;;;;;;;;;;15.46;100.00;101038.38;5031830;28;1262;-62
2024/04/08 03:27:00;;;;;;;;;;;;;;;15.46;100.00;101036.47;5026938;28;1973;-62
2024/04/08 03:29:25;;;;;;;;;;;;;;;15.44;100.00;101033.22;5010965;28;1382;-62
2024/04/08 03:31:51;;;;;;;;;;;;;;;15.45;100.00;101032.16;5020859;28;1126;-62
2024/04/08 03:34:16;;;;;;;;;;;;;;;15.43;100.00;101045.06;5008330;28;1114;-62
2024/04/08 03:36:41;;;;;;;;;;;;;;;15.41;100.00;101043.66;5017349;28;1081;-62
2024/04/08 03:40:44;;;;;;;;;;;;;;;15.42;100.00;101048.81;5439745;25;1318;-62
2024/04/08 03:43:09;;;;;;;;;;;;;;;15.41;100.00;101049.91;5418024;26;1349;-62
2024/04/08 03:45:35;;;;;;;;;;;;;;;15.42;100.00;101040.72;5413326;26;1351;-62
2024/04/08 03:48:00;;;;;;;;;;;;;;;15.39;100.00;101035.81;5362761;26;1359;-62
2024/04/08 03:50:28;;;;;;;;;;;;;;;15.38;100.00;101036.06;5406257;26;1347;-62
2024/04/08 03:52:54;;;;;;;;;;;;;;;15.35;100.00;101031.13;5417536;26;1390;-62
2024/04/08 03:55:22;;;;;;;;;;;;;;;15.38;100.00;101022.53;5428387;26;1312;-62
2024/04/08 03:57:47;;;;;;;;;;;;;;;15.35;100.00;101009.53;5421311;26;1241;-62
2024/04/08 04:00:13;;;;;;;;;;;;;;;15.34;100.00;101007.91;5417830;26;1870;-62
2024/04/08 04:02:47;;;;;;;;;;;;;;;15.35;100.00;101009.53;5414005;26;1171;-62
2024/04/08 04:05:13;;;;;;;;;;;;;;;15.32;100.00;101013.56;5456919;26;1395;-62
2024/04/08 04:07:38;;;;;;;;;;;;;;;15.36;100.00;101016.56;5427693;26;1282;-62
2024/04/08 04:10:08;;;;;;;;;;;;;;;15.34;100.00;101016.81;5420061;26;1229;-62
2024/04/08 04:12:33;;;;;;;;;;;;;;;15.33;100.00;101012.47;5402281;26;1313;-62
2024/04/08 04:15:05;;;;;;;;;;;;;;;15.32;100.00;100999.22;5400323;26;1353;-62
2024/04/08 04:17:31;;;;;;;;;;;;;;;15.28;100.00;100988.88;5422200;26;1307;-62
2024/04/08 04:19:56;;;;;;;;;;;;;;;15.27;100.00;100981.03;5425657;26;1826;-62
2024/04/08 04:22:21;;;;;;;;;;;;;;;15.28;100.00;100975.38;5408514;26;1199;-62
2024/04/08 04:24:47;;;;;;;;;;;;;;;15.30;100.00;100969.72;5418553;26;1161;-62
2024/04/08 04:27:12;;;;;;;;;;;;;;;15.27;100.00;100960.22;5416189;26;1304;-62
2024/04/08 04:29:37;;;;;;;;;;;;;;;15.25;100.00;100950.75;5418270;26;1208;-62
2024/04/08 04:32:02;;;;;;;;;;;;;;;15.25;100.00;100931.84;5420537;26;1177;-62
2024/04/08 04:34:28;;;;;;;;;;;;;;;15.26;100.00;100920.78;5418590;26;1219;-62
2024/04/08 04:36:53;;;;;;;;;;;;;;;15.26;100.00;100923.50;5414590;26;1242;-62
2024/04/08 04:39:18;;;;;;;;;;;;;;;15.26;100.00;100933.47;5397134;26;1825;-62
2024/04/08 04:41:44;;;;;;;;;;;;;;;15.25;100.00;100929.94;5428017;26;1285;-62
2024/04/08 04:44:10;;;;;;;;;;;;;;;15.25;100.00;100934.53;5435229;26;1180;-62
2024/04/08 04:46:35;;;;;;;;;;;;;;;15.23;100.00;100929.38;5422513;26;1311;-62
2024/04/08 04:49:00;;;;;;;;;;;;;;;15.23;100.00;100936.66;5407168;26;1759;-62
2024/04/08 04:51:26;;;;;;;;;;;;;;;15.25;100.00;100932.66;5402234;26;1382;-62
2024/04/08 04:53:51;;;;;;;;;;;;;;;15.23;100.00;100932.09;5400892;26;1392;-62
2024/04/08 04:56:16;;;;;;;;;;;;;;;15.23;100.00;100926.69;5410011;26;1519;-62
2024/04/08 04:58:41;;;;;;;;;;;;;;;15.26;100.00;100930.75;5409488;26;1884;-62
2024/04/08 05:01:07;;;;;;;;;;;;;;;15.22;100.00;100930.44;5412804;26;1346;-62
2024/04/08 05:03:32;;;;;;;;;;;;;;;15.20;100.00;100951.50;5393844;26;1394;-62
2024/04/08 05:06:00;;;;;;;;;;;;;;;15.23;100.00;100961.81;5409681;26;1290;-61
2024/04/08 05:08:25;;;;;;;;;;;;;;;15.23;100.00;100969.91;5375881;26;1376;-62
2024/04/08 05:10:50;;;;;;;;;;;;;;;15.20;100.00;100956.06;5398984;26;1267;-62
2024/04/08 05:13:17;;;;;;;;;;;;;;;15.19;100.00;100976.06;5401488;26;1390;-62
2024/04/08 05:15:42;;;;;;;;;;;;;;;15.21;100.00;100987.41;5375099;26;1450;-62
2024/04/08 05:18:07;;;;;;;;;;;;;;;15.22;100.00;100984.47;5405303;26;1185;-62
2024/04/08 05:20:34;;;;;;;;;;;;;;;15.16;100.00;100979.22;5378144;26;1836;-62
2024/04/08 05:22:59;;;;;;;;;;;;;;;15.16;100.00;100985.44;5394015;26;1317;-62
2024/04/08 05:25:25;;;;;;;;;;;;;;;15.15;100.00;100983.00;5407197;26;1879;-62
2024/04/08 05:27:50;;;;;;;;;;;;;;;15.13;100.00;100980.53;5403615;26;1238;-62
2024/04/08 05:30:15;;;;;;;;;;;;;;;15.14;100.00;100979.44;5401826;26;1424;-60
2024/04/08 05:32:40;;;;;;;;;;;;;;;15.09;100.00;100988.28;5405254;26;1294;-61
2024/04/08 05:35:07;;;;;;;;;;;;;;;15.12;100.00;100995.09;5403258;26;1385;-61
2024/04/08 05:37:32;;;;;;;;;;;;;;;15.07;100.00;100993.13;5410080;26;1246;-61
2024/04/08 05:39:57;;;;;;;;;;;;;;;15.09;100.00;101007.19;5391358;26;1822;-61
2024/04/08 05:42:22;;;;;;;;;;;;;;;15.13;100.00;101013.75;5398938;26;1516;-61
2024/04/08 05:44:48;;;;;;;;;;;;;;;15.13;100.00;101015.66;5403379;26;1390;-61
2024/04/08 05:47:13;;;;;;;;;;;;;;;15.12;100.00;101025.63;5410015;26;1224;-61
2024/04/08 05:49:39;;;;;;;;;;;;;;;15.08;100.00;101021.78;5411590;26;1390;-61
2024/04/08 05:52:04;;;;;;;;;;;;;;;15.13;100.00;101029.16;5408101;26;1440;-61
2024/04/08 05:54:29;;;;;;;;;;;;;;;15.10;100.00;101035.03;5409126;26;1394;-61
2024/04/08 05:56:54;;;;;;;;;;;;;;;15.10;100.00;101030.44;5401643;26;1230;-61
2024/04/08 05:59:20;;;;;;;;;;;;;;;15.08;100.00;101015.53;5408584;26;1826;-62
2024/04/08 06:01:45;;;;;;;;;;;;;;;15.06;100.00;101001.47;5405596;26;1392;-62
2024/04/08 06:04:10;;;;;;;;;;;;;;;15.08;100.00;100977.72;5404225;26;1190;-62
2024/04/08 06:06:36;;;;;;;;;;;;;;;15.08;100.00;100951.56;5402619;26;1382;-62
2024/04/08 06:09:04;;;;;;;;;;;;;;;15.08;100.00;100950.72;5420088;26;1385;-61
2024/04/08 06:11:29;;;;;;;;;;;;;;;15.13;100.00;100938.13;5401947;26;1723;-62
2024/04/08 06:13:55;;;;;;;;;;;;;;;15.08;100.00;100937.22;5404839;26;1382;-62
2024/04/08 06:16:20;;;;;;;;;;;;;;;15.09;100.00;100949.66;5404525;26;1430;-62
2024/04/08 06:18:46;;;;;;;;;;;;;;;15.10;100.00;100943.22;5406740;26;1828;-62
2024/04/08 06:21:11;;;;;;;;;;;;;;;15.13;100.00;100930.03;5370412;26;1404;-60
2024/04/08 06:23:36;;;;;;;;;;;;;;;15.13;100.00;100938.13;5404736;26;1446;-60
2024/04/08 06:26:02;;;;;;;;;;;;;;;15.17;100.00;100979.00;5408268;26;1530;-60
2024/04/08 06:28:28;;;;;;;;;;;;;;;15.24;100.00;100989.63;5398904;26;1388;-60
2024/04/08 06:30:54;;;;;;;;;;;;;;;15.22;100.00;100989.06;5403680;26;1394;-60
2024/04/08 06:33:19;;;;;;;;;;;;;;;15.18;100.00;100988.72;5411856;26;1232;-61
2024/04/08 06:35:45;;;;;;;;;;;;;;;15.24;100.00;100992.34;5406799;26;1273;-61
2024/04/08 06:38:12;;;;;;;;;;;;;;;15.22;100.00;100992.56;5398437;26;2224;-61
2024/04/08 06:40:37;;;;;;;;;;;;;;;15.25;100.00;100999.38;5372653;26;1837;-61
2024/04/08 06:43:03;;;;;;;;;;;;;;;15.22;100.00;101000.69;5399635;26;1498;-61
2024/04/08 06:45:28;;;;;;;;;;;;;;;15.20;100.00;101001.97;5425039;26;1535;-60
2024/04/08 06:47:53;;;;;;;;;;;;;;;15.19;100.00;101014.66;5408489;26;1281;-61
2024/04/08 06:50:19;;;;;;;;;;;;;;;15.18;100.00;101018.44;5425309;26;1504;-61
2024/04/08 06:52:44;;;;;;;;;;;;;;;15.21;100.00;101012.53;5405384;26;1350;-61
2024/04/08 06:55:09;;;;;;;;;;;;;;;15.22;100.00;101027.69;5406970;26;1697;-61
2024/04/08 06:57:35;;;;;;;;;;;;;;;15.20;100.00;101024.44;5408986;26;1461;-61
2024/04/08 07:00:00;;;;;;;;;;;;;;;15.16;100.00;101030.53;5399796;26;1968;-61
2024/04/08 07:02:26;;;;;;;;;;;;;;;15.21;100.00;101011.72;5399459;26;1565;-61
2024/04/08 07:04:51;;;;;;;;;;;;;;;15.20;100.00;101010.91;5373656;26;1373;-61
2024/04/08 07:07:17;;;;;;;;;;;;;;;15.19;100.00;101008.47;5400337;26;1392;-61
2024/04/08 07:09:42;;;;;;;;;;;;;;;15.20;100.00;101008.22;5364844;26;1385;-61
2024/04/08 07:12:07;;;;;;;;;;;;;;;15.18;100.00;101004.91;5370797;26;1252;-61
2024/04/08 07:14:33;;;;;;;;;;;;;;;15.17;100.00;101006.00;5403556;26;1516;-61
2024/04/08 07:16:58;;;;;;;;;;;;;;;15.18;100.00;100999.53;5404882;26;1352;-61
2024/04/08 07:19:23;;;;;;;;;;;;;;;15.19;100.00;100990.38;5396649;26;1829;-61
2024/04/08 07:21:49;;;;;;;;;;;;;;;15.19;100.00;100984.16;5406014;26;1460;-62
2024/04/08 07:24:15;;;;;;;;;;;;;;;15.23;100.00;100975.31;5403703;26;1267;-61
2024/04/08 07:26:40;;;;;;;;;;;;;;;15.22;100.00;100962.06;5401837;26;1536;-61
2024/04/08 07:29:06;;;;;;;;;;;;;;;15.20;100.00;100962.28;5361963;26;2474;-61
2024/04/08 07:31:31;;;;;;;;;;;;;;;15.25;100.00;100962.38;5402902;26;1694;-65
2024/04/08 07:33:56;;;;;;;;;;;;;;;15.33;100.00;100952.22;5405619;26;1555;-61
2024/04/08 07:36:22;;;;;;;;;;;;;;;15.40;100.00;100956.41;5394011;26;1574;-61
2024/04/08 07:38:47;;;;;;;;;;;;;;;15.39;100.00;100946.63;5394264;26;1861;-61
2024/04/08 07:41:12;;;;;;;;;;;;;;;15.41;100.00;100935.59;5407282;26;1693;-61
2024/04/08 07:43:39;;;;;;;;;;;;;;;15.40;100.00;100931.28;5404330;26;1565;-61
2024/04/08 07:46:04;;;;;;;;;;;;;;;15.38;100.00;100938.78;5393941;26;1591;-61
2024/04/08 07:48:30;;;;;;;;;;;;;;;15.39;100.00;100962.03;5399073;26;1579;-61
2024/04/08 07:50:56;;;;;;;;;;;;;;;15.39;100.00;100967.44;5402139;26;1406;-61
2024/04/08 07:53:21;;;;;;;;;;;;;;;15.43;100.00;100963.19;5406207;26;1352;-61
2024/04/08 07:55:47;;;;;;;;;;;;;;;15.42;100.00;100951.56;5409184;26;1440;-61
2024/04/08 07:58:12;;;;;;;;;;;;;;;15.47;100.00;100948.13;5376326;26;1430;-61
2024/04/08 08:00:37;;;;;;;;;;;;;;;15.46;100.00;100936.50;5398209;26;1946;-61
2024/04/08 08:03:03;;;;;;;;;;;;;;;15.46;100.00;100941.88;5407291;26;1465;-61
2024/04/08 08:05:28;;;;;;;;;;;;;;;15.44;100.00;100951.34;5405133;26;1720;-61
2024/04/08 08:07:53;;;;;;;;;;;;;;;15.46;100.00;100951.91;5402968;26;1321;-61
2024/04/08 08:10:19;;;;;;;;;;;;;;;15.46;100.00;100944.59;5399019;26;1378;-61
2024/04/08 08:12:44;;;;;;;;;;;;;;;15.42;100.00;100946.16;5393152;26;1467;-61
2024/04/08 08:15:09;;;;;;;;;;;;;;;15.49;100.00;100932.47;5408601;26;1129;-61
2024/04/08 08:17:35;;;;;;;;;;;;;;;15.52;100.00;100939.28;5409424;26;1150;-61
2024/04/08 08:20:00;;;;;;;;;;;;;;;15.53;100.00;100933.63;5385376;26;1860;-61
2024/04/08 08:22:26;;;;;;;;;;;;;;;15.59;100.00;100921.00;5403875;26;1191;-61
2024/04/08 08:24:51;;;;;;;;;;;;;;;15.61;100.00;100911.56;5399903;26;1238;-61
2024/04/08 08:27:16;;;;;;;;;;;;;;;15.68;100.00;100910.56;5397986;26;2298;-61
2024/04/08 08:29:42;;;;;;;;;;;;;;;15.73;100.00;100906.06;5406374;26;1256;-61
2024/04/08 08:32:08;;;;;;;;;;;;;;;15.76;100.00;100913.66;5410948;26;1222;-61
2024/04/08 08:34:33;;;;;;;;;;;;;;;15.83;100.00;100924.34;5405225;26;1538;-61
2024/04/08 08:36:58;;;;;;;;;;;;;;;15.94;100.00;100928.00;5405511;26;1514;-61
2024/04/08 08:39:23;;;;;;;;;;;;;;;15.94;100.00;100915.31;5419482;26;1829;-61
2024/04/08 08:41:52;;;;;;;;;;;;;;;16.03;100.00;100922.97;5404490;26;1398;-61
2024/04/08 08:44:20;;;;;;;;;;;;;;;16.06;100.00;100927.88;5402681;26;1356;-61
2024/04/08 08:46:45;;;;;;;;;;;;;;;16.11;100.00;100938.78;5409658;26;1199;-62
2024/04/08 08:49:10;;;;;;;;;;;;;;;16.20;100.00;100944.59;5398743;26;1457;-61
2024/04/08 08:51:36;;;;;;;;;;;;;;;16.10;100.00;100937.13;5368349;26;1342;-61
2024/04/08 08:54:01;;;;;;;;;;;;;;;16.11;100.00;100944.19;5399390;26;1553;-61
2024/04/08 08:56:27;;;;;;;;;;;;;;;16.17;100.00;100943.19;5388284;26;1201;-61
2024/04/08 08:58:53;;;;;;;;;;;;;;;16.20;100.00;100945.38;5400959;26;1829;-61
2024/04/08 09:01:19;;;;;;;;;;;;;;;16.19;100.00;100927.50;5402167;26;1931;-61
2024/04/08 09:03:44;;;;;;;;;;;;;;;16.24;100.00;100913.22;5405898;26;1172;-61
2024/04/08 09:06:10;;;;;;;;;;;;;;;16.25;100.00;100909.44;5373420;26;1314;-61
2024/04/08 09:08:35;;;;;;;;;;;;;;;16.27;100.00;100905.44;5395677;26;1324;-62
2024/04/08 09:11:04;;;;;;;;;;;;;;;16.33;100.00;100912.53;5406665;26;1328;-62
2024/04/08 09:13:31;;;;;;;;;;;;;;;16.34;100.00;100930.41;5406601;26;1467;-62
2024/04/08 09:15:56;;;;;;;;;;;;;;;16.38;100.00;100928.00;5404740;26;1331;-62
2024/04/08 09:18:21;;;;;;;;;;;;;;;16.43;100.00;100924.53;5401406;26;1871;-62
2024/04/08 09:20:46;;;;;;;;;;;;;;;16.48;100.00;100925.41;5409026;26;1227;-62
2024/04/08 09:23:12;;;;;;;;;;;;;;;16.51;100.00;100921.41;5410288;26;1508;-61
2024/04/08 09:25:37;;;;;;;;;;;;;;;16.56;100.00;100936.88;5408660;26;1485;-61
2024/04/08 09:28:03;;;;;;;;;;;;;;;16.61;100.00;100943.16;5406243;26;1295;-61
2024/04/08 09:30:28;;;;;;;;;;;;;;;16.64;100.00;100929.13;5406783;26;1213;-61
2024/04/08 09:32:54;;;;;;;;;;;;;;;16.66;100.00;100926.94;5378640;26;1339;-61
2024/04/08 09:35:19;;;;;;;;;;;;;;;16.68;100.00;100916.69;5382521;26;1290;-61
2024/04/08 09:37:44;;;;;;;;;;;;;;;16.77;100.00;100917.03;5393150;26;1472;-61
2024/04/08 09:40:11;;;;;;;;;;;;;;;16.83;100.00;100909.78;5395302;26;1872;-61
2024/04/08 09:42:36;;;;;;;;;;;;;;;16.79;100.00;100897.81;5377964;26;1653;-61
2024/04/08 09:45:05;;;;;;;;;;;;;;;16.84;100.00;100892.47;5377076;26;1574;-62
2024/04/08 09:47:30;;;;;;;;;;;;;;;16.91;100.00;100889.56;5404151;26;1424;-61
2024/04/08 09:49:57;;;;;;;;;;;;;;;16.91;100.00;100901.22;5406270;26;1375;-61
2024/04/08 09:52:24;;;;;;;;;;;;;;;16.93;100.00;100900.97;5406313;26;1433;-61
2024/04/08 09:54:49;;;;;;;;;;;;;;;16.93;100.00;100892.84;5408745;26;1289;-61
2024/04/08 09:57:15;;;;;;;;;;;;;;;16.93;100.00;100892.84;5410493;26;1472;-61
2024/04/08 09:59:40;;;;;;;;;;;;;;;16.93;100.00;100892.84;5406649;26;1833;-62
2024/04/08 10:02:11;;;;;;;;;;;;;;;16.92;100.00;100872.25;5402560;26;1228;-61
2024/04/08 10:04:39;;;;;;;;;;;;;;;16.92;100.00;100878.47;5349778;26;1546;-61
2024/04/08 10:07:05;;;;;;;;;;;;;;;16.96;100.00;100874.19;5377240;26;1363;-61
2024/04/08 10:09:31;;;;;;;;;;;;;;;16.92;100.00;100878.47;5378716;26;1239;-62
2024/04/08 10:11:56;;;;;;;;;;;;;;;16.94;100.00;100881.75;5402321;26;1893;-61
2024/04/08 10:14:23;;;;;;;;;;;;;;;16.94;100.00;100868.22;5401567;26;1210;-61
2024/04/08 10:16:48;;;;;;;;;;;;;;;16.92;100.00;100856.81;5390228;26;1148;-61
2024/04/08 10:19:14;;;;;;;;;;;;;;;16.90;100.00;100860.88;5404146;26;1830;-61
2024/04/08 10:21:39;;;;;;;;;;;;;;;16.93;100.00;100866.56;5400054;26;1826;-61
2024/04/08 10:24:05;;;;;;;;;;;;;;;17.00;100.00;100869.06;5406076;26;1287;-61
2024/04/08 10:26:34;;;;;;;;;;;;;;;17.04;100.00;100870.16;5399850;26;1260;-61
2024/04/08 10:28:59;;;;;;;;;;;;;;;17.08;100.00;100867.78;5362136;26;1265;-62
2024/04/08 10:31:27;;;;;;;;;;;;;;;17.09;100.00;100864.81;5392311;26;1396;-62
2024/04/08 10:33:53;;;;;;;;;;;;;;;17.12;100.00;100866.19;5401589;26;1422;-61
2024/04/08 10:36:18;;;;;;;;;;;;;;;17.17;100.00;100866.22;5408236;26;1311;-61
2024/04/08 10:38:43;;;;;;;;;;;;;;;17.15;100.00;100863.75;5403466;26;1916;-61
2024/04/08 10:41:09;;;;;;;;;;;;;;;17.15;100.00;100857.53;5393277;26;1937;-61
2024/04/08 10:43:34;;;;;;;;;;;;;;;17.10;100.00;100858.31;5402617;26;1470;-61
2024/04/08 10:46:01;;;;;;;;;;;;;;;17.11;100.00;100862.66;5374365;26;1392;-61
2024/04/08 10:48:26;;;;;;;;;;;;;;;17.12;100.00;100858.06;5402718;26;1482;-63
2024/04/08 10:50:52;;;;;;;;;;;;;;;17.16;100.00;100868.13;5401453;26;1969;-63
2024/04/08 10:53:17;;;;;;;;;;;;;;;17.10;100.00;100846.66;5405631;26;1197;-63
2024/04/08 10:55:43;;;;;;;;;;;;;;;17.10;100.00;100850.19;5401193;26;1457;-63
2024/04/08 10:58:08;;;;;;;;;;;;;;;17.10;100.00;100842.06;5401792;26;1556;-63
2024/04/08 11:00:34;;;;;;;;;;;;;;;17.09;100.00;100835.00;5398545;26;1901;-63
2024/04/08 11:02:59;;;;;;;;;;;;;;;17.13;100.00;100835.28;5404910;26;1278;-63
2024/04/08 11:05:25;;;;;;;;;;;;;;;17.10;100.00;100836.66;5394463;26;1528;-63
2024/04/08 11:07:51;;;;;;;;;;;;;;;17.04;100.00;100841.22;5371022;26;1291;-63
2024/04/08 11:10:17;;;;;;;;;;;;;;;17.04;100.00;100835.78;5400248;26;1217;-64
2024/04/08 11:12:42;;;;;;;;;;;;;;;17.03;100.00;100841.47;5405349;26;1345;-64
2024/04/08 11:15:11;;;;;;;;;;;;;;;17.04;100.00;100837.66;5399393;26;1272;-64
2024/04/08 11:17:36;;;;;;;;;;;;;;;17.04;100.00;100833.09;5401549;26;1241;-63
2024/04/08 11:20:02;;;;;;;;;;;;;;;17.02;100.00;100837.94;5407846;26;1860;-63
2024/04/08 11:22:27;;;;;;;;;;;;;;;17.02;100.00;100834.41;5399364;26;1211;-64
2024/04/08 11:24:53;;;;;;;;;;;;;;;16.99;100.00;100824.91;5383835;26;1497;-64
2024/04/08 11:27:19;;;;;;;;;;;;;;;16.98;100.00;100831.41;5397286;26;1754;-63
2024/04/08 11:29:44;;;;;;;;;;;;;;;16.96;100.00;100830.84;5405301;26;1238;-64
2024/04/08 11:32:13;;;;;;;;;;;;;;;16.96;100.00;100830.03;5437266;26;1200;-63
2024/04/08 11:34:38;;;;;;;;;;;;;;;16.94;100.00;100821.34;5404372;26;1428;-63
2024/04/08 11:37:04;;;;;;;;;;;;;;;16.94;100.00;100816.75;5392686;26;1495;-63
2024/04/08 11:39:29;;;;;;;;;;;;;;;16.97;100.00;100829.78;5403538;26;1860;-63
2024/04/08 11:41:54;;;;;;;;;;;;;;;16.95;100.00;100833.81;5401332;26;1868;-63
2024/04/08 11:44:24;;;;;;;;;;;;;;;16.96;100.00;100833.56;5402583;26;1486;-63
2024/04/08 11:46:49;;;;;;;;;;;;;;;16.95;100.00;100841.94;5402462;26;1459;-62
2024/04/08 11:49:15;;;;;;;;;;;;;;;16.93;100.00;100827.84;5376547;26;1496;-62
2024/04/08 11:51:40;;;;;;;;;;;;;;;16.98;100.00;100811.63;5372549;26;1522;-62
2024/04/08 11:54:05;;;;;;;;;;;;;;;16.96;100.00;100836.25;5404815;26;1663;-62
2024/04/08 11:56:31;;;;;;;;;;;;;;;16.94;100.00;100846.53;5406907;26;1334;-62
2024/04/08 11:58:56;;;;;;;;;;;;;;;16.93;100.00;100852.22;5404953;26;1850;-62
2024/04/08 12:01:21;;;;;;;;;;;;;;;16.91;100.00;100838.94;5395105;26;1999;-62
2024/04/08 12:03:46;;;;;;;;;;;;;;;16.89;100.00;100827.53;5412134;26;2027;-62
2024/04/08 12:06:12;;;;;;;;;;;;;;;16.91;100.00;100816.44;5391207;26;2048;-62
2024/04/08 12:08:37;;;;;;;;;;;;;;;16.93;100.00;100811.59;5368063;26;1998;-62
2024/04/08 12:11:03;;;;;;;;;;;;;;;16.97;100.00;100807.31;5367516;26;2067;-62
2024/04/08 12:13:28;;;;;;;;;;;;;;;16.94;100.00;100799.66;5398004;26;2164;-62
2024/04/08 12:15:53;;;;;;;;;;;;;;;17.28;100.00;100793.94;5361840;26;2026;-67
2024/04/08 12:18:18;;;;;;;;;;;;;;;17.75;100.00;100777.63;5386820;26;1990;-67
2024/04/08 12:20:44;;;;;;;;;;;;;;;17.90;100.00;100770.63;5389471;26;2119;-66
2024/04/08 12:23:12;;;;;;;;;;;;;;;18.16;100.00;100765.28;5418631;26;2027;-68
2024/04/08 12:25:38;;;;;;;;;;;;;;;17.78;100.00;100764.59;5400692;26;2128;-67
2024/04/08 12:28:04;;;;;;;;;;;;;;;18.07;100.00;100754.94;5401593;26;2158;-67